createdAt,value
2017-03-26T00:00:55.684Z,-76
2017-03-26T00:05:51.987Z,-76
2017-03-26T00:10:48.319Z,-76
2017-03-26T00:15:44.829Z,-76
2017-03-26T00:20:41.161Z,-75
2017-03-26T00:25:37.657Z,-77
2017-03-26T00:30:33.981Z,-75
2017-03-26T00:35:30.572Z,-77
2017-03-26T00:40:27.088Z,-76
2017-03-26T00:45:24.292Z,-75
2017-03-26T00:50:20.474Z,-75
2017-03-26T00:55:17.035Z,-76
2017-03-26T01:00:12.797Z,-74
2017-03-26T01:05:10.073Z,-76
2017-03-26T01:10:06.472Z,-75
2017-03-26T01:15:02.931Z,-74
2017-03-26T01:19:59.312Z,-76
2017-03-26T01:24:55.894Z,-77
2017-03-26T01:29:52.265Z,-76
2017-03-26T01:34:48.779Z,-76
2017-03-26T01:39:45.072Z,-75
2017-03-26T01:44:41.330Z,-77
2017-03-26T01:49:37.713Z,-77
2017-03-26T01:54:33.935Z,-78
2017-03-26T01:59:30.389Z,-77
2017-03-26T02:04:26.828Z,-76
2017-03-26T02:09:23.192Z,-80
2017-03-26T02:14:19.376Z,-77
2017-03-26T02:19:16.110Z,-78
2017-03-26T02:24:12.518Z,-75
2017-03-26T02:29:09.120Z,-78
2017-03-26T02:34:05.873Z,-78
2017-03-26T02:39:01.965Z,-75
2017-03-26T02:43:58.607Z,-77
2017-03-26T02:48:54.575Z,-75
2017-03-26T02:53:51.156Z,-76
2017-03-26T02:58:47.123Z,-75
2017-03-26T03:03:43.688Z,-73
2017-03-26T03:08:40.160Z,-74
2017-03-26T03:13:37.210Z,-72
2017-03-26T03:18:33.882Z,-75
2017-03-26T03:23:30.204Z,-77
2017-03-26T03:28:26.764Z,-75
2017-03-26T03:33:23.691Z,-74
2017-03-26T03:38:20.352Z,-75
2017-03-26T03:43:18.051Z,-75
2017-03-26T03:48:13.986Z,-74
2017-03-26T03:53:10.528Z,-74
2017-03-26T03:58:07.737Z,-75
2017-03-26T04:03:04.232Z,-75
2017-03-26T04:08:02.066Z,-75
2017-03-26T04:12:58.298Z,-76
2017-03-26T04:17:54.738Z,-78
2017-03-26T04:22:51.189Z,-77
2017-03-26T04:27:47.906Z,-76
2017-03-26T04:32:43.617Z,-75
2017-03-26T04:42:40.143Z,-77
2017-03-26T04:47:38.055Z,-78
2017-03-26T04:52:34.279Z,-75
2017-03-26T04:57:31.558Z,-77
2017-03-26T05:02:28.174Z,-76
2017-03-26T05:07:24.459Z,-78
2017-03-26T05:12:21.796Z,-75
2017-03-26T05:17:18.377Z,-75
2017-03-26T05:22:15.122Z,-78
2017-03-26T05:27:12.165Z,-78
2017-03-26T05:32:09.538Z,-75
2017-03-26T05:37:06.134Z,-78
2017-03-26T05:42:02.779Z,-75
2017-03-26T05:46:59.255Z,-75
2017-03-26T05:51:55.346Z,-75
2017-03-26T06:01:51.978Z,-75
2017-03-26T06:06:48.330Z,-75
2017-03-26T06:11:44.731Z,-73
2017-03-26T06:16:42.481Z,-76
2017-03-26T06:21:39.158Z,-75
2017-03-26T06:26:35.538Z,-75
2017-03-26T06:31:32.245Z,-79
2017-03-26T06:36:29.401Z,-78
2017-03-26T06:41:25.997Z,-74
2017-03-26T06:46:22.800Z,-75
2017-03-26T06:51:20.162Z,-75
2017-03-26T06:56:16.663Z,-74
2017-03-26T07:01:14.555Z,-75
2017-03-26T07:06:11.151Z,-78
2017-03-26T07:11:08.099Z,-76
2017-03-26T07:16:07.090Z,-76
2017-03-26T07:21:02.968Z,-78
2017-03-26T07:25:59.465Z,-75
2017-03-26T07:30:55.924Z,-75
2017-03-26T07:35:52.983Z,-76
2017-03-26T07:40:49.461Z,-77
2017-03-26T07:45:46.091Z,-76
2017-03-26T07:50:43.388Z,-75
2017-03-26T07:55:40.091Z,-77
2017-03-26T08:00:37.036Z,-76
2017-03-26T08:05:33.783Z,-77
2017-03-26T08:10:31.590Z,-76
2017-03-26T08:15:27.992Z,-77
2017-03-26T08:20:24.888Z,-77
2017-03-26T08:25:22.179Z,-78
2017-03-26T08:30:18.847Z,-77
2017-03-26T08:35:14.751Z,-76
2017-03-26T08:40:11.250Z,-73
2017-03-26T08:45:07.527Z,-74
2017-03-26T08:50:04.097Z,-75
2017-03-26T08:55:00.535Z,-74
2017-03-26T08:59:57.214Z,-76
2017-03-26T09:04:54.287Z,-84
2017-03-26T09:09:50.605Z,-74
2017-03-26T09:14:46.703Z,-76
2017-03-26T09:19:44.515Z,-83
2017-03-26T10:26:18.898Z,-84
2017-03-26T10:35:55.869Z,-79
2017-03-26T10:40:55.654Z,-85
2017-03-26T10:45:51.515Z,-85
2017-03-26T10:50:49.186Z,-78
2017-03-26T10:55:46.047Z,-77
2017-03-26T11:00:42.528Z,-74
2017-03-26T11:05:39.345Z,-73
2017-03-26T11:10:36.749Z,-74
2017-03-26T11:15:33.925Z,-75
2017-03-26T11:20:31.287Z,-80
2017-03-26T11:25:28.234Z,-77
2017-03-26T11:30:30.907Z,-77
2017-03-26T11:35:27.482Z,-76
2017-03-26T11:40:27.284Z,-76
2017-03-26T11:45:24.092Z,-79
2017-03-26T11:50:21.031Z,-78
2017-03-26T11:55:17.699Z,-77
2017-03-26T12:00:15.046Z,-77
2017-03-26T12:05:11.513Z,-82
2017-03-26T12:10:08.714Z,-79
2017-03-26T12:15:05.281Z,-80
2017-03-26T12:20:02.234Z,-82
2017-03-26T12:24:59.892Z,-82
2017-03-26T12:29:56.234Z,-77
2017-03-26T12:34:52.221Z,-78
2017-03-26T12:39:48.001Z,-86
2017-03-26T12:44:44.415Z,-85
2017-03-26T12:49:42.733Z,-85
2017-03-26T12:54:39.289Z,-83
2017-03-26T12:59:35.108Z,-82
2017-03-26T13:04:31.354Z,-83
2017-03-26T13:09:28.868Z,-83
2017-03-26T13:14:25.413Z,-80
2017-03-26T13:19:22.357Z,-81
2017-03-26T13:24:19.391Z,-82
2017-03-26T13:29:16.309Z,-81
2017-03-26T13:34:12.721Z,-75
2017-03-26T13:39:10.162Z,-78
2017-03-26T13:44:06.933Z,-76
2017-03-26T13:49:02.987Z,-78
2017-03-26T13:54:00.337Z,-76
2017-03-26T13:58:57.075Z,-78
2017-03-26T14:03:53.879Z,-79
2017-03-26T14:08:51.282Z,-78
2017-03-26T14:13:48.490Z,-79
2017-03-26T14:18:44.622Z,-79
2017-03-26T14:23:40.951Z,-79
2017-03-26T14:28:37.241Z,-79
2017-03-26T14:33:34.955Z,-77
2017-03-26T14:38:31.412Z,-76
2017-03-26T14:43:28.010Z,-80
2017-03-26T14:48:24.464Z,-75
2017-03-26T14:53:20.790Z,-76
2017-03-26T14:58:17.259Z,-77
2017-03-26T15:03:13.315Z,-80
2017-03-26T15:08:09.763Z,-77
2017-03-26T15:13:06.256Z,-80
2017-03-26T15:18:02.522Z,-79
2017-03-26T15:22:58.954Z,-80
2017-03-26T15:27:55.688Z,-75
2017-03-26T15:32:51.810Z,-74
2017-03-26T15:37:48.217Z,-76
2017-03-26T15:42:45.084Z,-75
2017-03-26T15:47:41.659Z,-75
2017-03-26T15:52:38.203Z,-75
2017-03-26T15:57:34.580Z,-77
2017-03-26T16:02:30.670Z,-77
2017-03-26T16:07:27.537Z,-74
2017-03-26T16:12:24.081Z,-75
2017-03-26T16:17:21.623Z,-81
2017-03-26T16:22:18.859Z,-75
2017-03-26T16:27:15.227Z,-82
2017-03-26T16:32:11.249Z,-80
2017-03-26T16:37:08.199Z,-81
2017-03-26T16:42:04.769Z,-78
2017-03-26T16:47:01.852Z,-79
2017-03-26T16:51:58.778Z,-81
2017-03-26T16:56:55.155Z,-81
2017-03-26T17:01:51.824Z,-76
2017-03-26T17:06:48.549Z,-75
2017-03-26T17:11:45.454Z,-78
2017-03-26T17:16:42.013Z,-80
2017-03-26T17:21:38.915Z,-80
2017-03-26T17:26:35.476Z,-77
2017-03-26T17:31:32.086Z,-76
2017-03-26T17:36:28.653Z,-77
2017-03-26T17:41:25.423Z,-80
2017-03-26T17:46:22.343Z,-76
2017-03-26T17:51:18.823Z,-81
2017-03-26T17:56:15.897Z,-81
2017-03-26T18:01:12.638Z,-80
2017-03-26T18:06:09.428Z,-81
2017-03-26T18:11:06.138Z,-79
2017-03-26T18:16:03.075Z,-83
2017-03-26T18:21:00.261Z,-83
2017-03-26T18:30:57.412Z,-81
2017-03-26T18:35:54.004Z,-82
2017-03-26T18:40:50.021Z,-82
2017-03-26T18:45:46.701Z,-82
2017-03-26T18:50:43.362Z,-83
2017-03-26T18:55:39.961Z,-81
2017-03-26T19:00:36.697Z,-80
2017-03-26T19:05:33.965Z,-82
2017-03-26T19:10:30.268Z,-82
2017-03-26T19:15:26.907Z,-82
2017-03-26T19:20:23.145Z,-82
2017-03-26T19:25:19.590Z,-82
2017-03-26T19:30:15.868Z,-81
2017-03-26T19:35:12.848Z,-79
2017-03-26T19:40:08.795Z,-79
2017-03-26T19:45:04.807Z,-81
2017-03-26T19:50:01.189Z,-78
2017-03-26T19:54:58.688Z,-81
2017-03-26T19:59:55.270Z,-85
2017-03-26T20:04:52.779Z,-85
2017-03-26T20:09:49.355Z,-83
2017-03-26T20:14:45.535Z,-83
2017-03-26T20:19:42.234Z,-82
2017-03-26T20:24:38.534Z,-84
2017-03-26T20:29:34.672Z,-81
2017-03-26T20:34:32.339Z,-81
2017-03-26T20:39:29.554Z,-81
2017-03-26T20:44:26.235Z,-80
2017-03-26T20:49:22.461Z,-80
2017-03-26T20:54:19.039Z,-81
2017-03-26T20:59:17.239Z,-77
2017-03-26T21:04:13.416Z,-77
2017-03-26T21:09:10.022Z,-79
2017-03-26T21:14:06.583Z,-77
2017-03-26T21:19:03.299Z,-76
2017-03-26T21:23:59.780Z,-80
2017-03-26T21:33:57.643Z,-78
2017-03-26T21:38:53.825Z,-76
2017-03-26T21:43:50.082Z,-79
2017-03-26T21:48:46.618Z,-76
2017-03-26T21:53:43.174Z,-80
2017-03-26T21:58:39.764Z,-80
2017-03-26T22:03:36.384Z,-81
2017-03-26T22:08:32.801Z,-79
2017-03-26T22:13:30.094Z,-78
2017-03-26T22:18:26.356Z,-80
2017-03-26T22:23:23.136Z,-78
2017-03-26T22:28:19.947Z,-79
2017-03-26T22:33:16.430Z,-80
2017-03-26T22:38:12.695Z,-79
2017-03-26T22:43:10.407Z,-79
2017-03-26T22:48:06.768Z,-78
2017-03-26T22:53:03.111Z,-79
2017-03-26T22:57:59.811Z,-79
2017-03-26T23:02:56.489Z,-78
2017-03-26T23:07:53.237Z,-79
2017-03-26T23:12:50.328Z,-78
2017-03-26T23:17:46.812Z,-78
2017-03-26T23:22:43.691Z,-79
2017-03-26T23:27:40.413Z,-78
2017-03-26T23:32:36.850Z,-79
2017-03-26T23:37:33.517Z,-79
2017-03-26T23:42:30.334Z,-79
2017-03-26T23:47:27.454Z,-78
2017-03-26T23:52:24.127Z,-79
2017-03-26T23:57:20.453Z,-78
